sensor_id;sensor_type;location;lat;lon;timestamp;P1;durP1;ratioP1;P2;durP2;ratioP2
65162;SDS011;51751;55.714;37.436;2023-04-08T00:01:25;12.50;;;3.85;;
65162;SDS011;51751;55.714;37.436;2023-04-08T00:03:51;9.45;;;2.92;;
65162;SDS011;51751;55.714;37.436;2023-04-08T00:06:17;5.90;;;3.35;;
65162;SDS011;51751;55.714;37.436;2023-04-08T00:08:43;10.43;;;3.38;;
65162;SDS011;51751;55.714;37.436;2023-04-08T00:11:09;7.68;;;3.50;;
65162;SDS011;51751;55.714;37.436;2023-04-08T00:13:35;7.22;;;2.97;;
65162;SDS011;51751;55.714;37.436;2023-04-08T00:16:01;12.25;;;3.45;;
65162;SDS011;51751;55.714;37.436;2023-04-08T00:18:27;9.57;;;3.45;;
65162;SDS011;51751;55.714;37.436;2023-04-08T00:20:53;7.63;;;3.38;;
65162;SDS011;51751;55.714;37.436;2023-04-08T00:23:21;7.88;;;3.17;;
65162;SDS011;51751;55.714;37.436;2023-04-08T00:25:47;9.25;;;3.40;;
65162;SDS011;51751;55.714;37.436;2023-04-08T00:28:13;8.90;;;3.20;;
65162;SDS011;51751;55.714;37.436;2023-04-08T00:30:39;15.27;;;3.50;;
65162;SDS011;51751;55.714;37.436;2023-04-08T00:33:25;8.82;;;3.10;;
65162;SDS011;51751;55.714;37.436;2023-04-08T00:36:09;9.77;;;3.03;;
65162;SDS011;51751;55.714;37.436;2023-04-08T00:38:35;10.63;;;3.38;;
65162;SDS011;51751;55.714;37.436;2023-04-08T00:41:01;8.15;;;3.28;;
65162;SDS011;51751;55.714;37.436;2023-04-08T00:43:27;8.73;;;3.10;;
65162;SDS011;51751;55.714;37.436;2023-04-08T00:45:53;10.13;;;3.13;;
65162;SDS011;51751;55.714;37.436;2023-04-08T00:48:19;8.35;;;3.20;;
65162;SDS011;51751;55.714;37.436;2023-04-08T00:50:45;9.98;;;3.17;;
65162;SDS011;51751;55.714;37.436;2023-04-08T00:53:14;11.40;;;3.58;;
65162;SDS011;51751;55.714;37.436;2023-04-08T00:55:42;9.40;;;3.58;;
65162;SDS011;51751;55.714;37.436;2023-04-08T00:58:08;27.98;;;4.00;;
65162;SDS011;51751;55.714;37.436;2023-04-08T01:09:11;16.17;;;3.78;;
65162;SDS011;51751;55.714;37.436;2023-04-08T01:11:43;11.32;;;3.30;;
65162;SDS011;51751;55.714;37.436;2023-04-08T01:14:11;12.85;;;4.05;;
65162;SDS011;51751;55.714;37.436;2023-04-08T01:16:40;6.10;;;3.13;;
65162;SDS011;51751;55.714;37.436;2023-04-08T01:19:07;7.60;;;3.40;;
65162;SDS011;51751;55.714;37.436;2023-04-08T01:21:34;8.10;;;3.00;;
65162;SDS011;51751;55.714;37.436;2023-04-08T01:24:27;13.93;;;3.30;;
65162;SDS011;51751;55.714;37.436;2023-04-08T01:26:55;6.20;;;3.20;;
65162;SDS011;51751;55.714;37.436;2023-04-08T01:29:23;8.77;;;3.33;;
65162;SDS011;51751;55.714;37.436;2023-04-08T01:31:50;10.88;;;3.85;;
65162;SDS011;51751;55.714;37.436;2023-04-08T01:34:17;12.48;;;3.65;;
65162;SDS011;51751;55.714;37.436;2023-04-08T01:36:44;7.15;;;3.20;;
65162;SDS011;51751;55.714;37.436;2023-04-08T01:39:13;9.52;;;3.17;;
65162;SDS011;51751;55.714;37.436;2023-04-08T01:41:41;9.38;;;3.05;;
65162;SDS011;51751;55.714;37.436;2023-04-08T01:44:08;9.00;;;3.10;;
65162;SDS011;51751;55.714;37.436;2023-04-08T01:46:35;9.93;;;3.22;;
65162;SDS011;51751;55.714;37.436;2023-04-08T01:49:01;11.27;;;3.38;;
65162;SDS011;51751;55.714;37.436;2023-04-08T01:51:28;9.00;;;3.05;;
65162;SDS011;51751;55.714;37.436;2023-04-08T01:53:56;10.40;;;3.33;;
65162;SDS011;51751;55.714;37.436;2023-04-08T01:56:22;9.55;;;3.20;;
65162;SDS011;51751;55.714;37.436;2023-04-08T01:58:50;8.30;;;3.40;;
65162;SDS011;51751;55.714;37.436;2023-04-08T02:01:35;7.05;;;3.30;;
65162;SDS011;51751;55.714;37.436;2023-04-08T02:04:02;7.95;;;3.33;;
65162;SDS011;51751;55.714;37.436;2023-04-08T02:06:28;5.88;;;3.33;;
65162;SDS011;51751;55.714;37.436;2023-04-08T02:08:55;13.40;;;4.03;;
65162;SDS011;51751;55.714;37.436;2023-04-08T02:11:22;14.13;;;3.80;;
65162;SDS011;51751;55.714;37.436;2023-04-08T02:13:50;9.50;;;4.15;;
65162;SDS011;51751;55.714;37.436;2023-04-08T02:16:38;13.10;;;3.50;;
65162;SDS011;51751;55.714;37.436;2023-04-08T02:19:08;9.88;;;3.60;;
65162;SDS011;51751;55.714;37.436;2023-04-08T02:21:46;8.25;;;3.75;;
65162;SDS011;51751;55.714;37.436;2023-04-08T02:24:14;11.23;;;4.32;;
65162;SDS011;51751;55.714;37.436;2023-04-08T02:26:41;14.23;;;3.80;;
65162;SDS011;51751;55.714;37.436;2023-04-08T02:29:11;11.32;;;3.97;;
65162;SDS011;51751;55.714;37.436;2023-04-08T02:31:38;9.27;;;3.53;;
65162;SDS011;51751;55.714;37.436;2023-04-08T02:34:07;14.85;;;4.00;;
65162;SDS011;51751;55.714;37.436;2023-04-08T02:36:34;14.95;;;3.80;;
65162;SDS011;51751;55.714;37.436;2023-04-08T02:39:02;8.50;;;3.63;;
65162;SDS011;51751;55.714;37.436;2023-04-08T02:41:28;8.75;;;3.33;;
65162;SDS011;51751;55.714;37.436;2023-04-08T02:43:54;11.00;;;4.22;;
65162;SDS011;51751;55.714;37.436;2023-04-08T02:46:20;8.82;;;3.60;;
65162;SDS011;51751;55.714;37.436;2023-04-08T02:48:46;14.32;;;3.90;;
65162;SDS011;51751;55.714;37.436;2023-04-08T02:51:12;9.95;;;3.45;;
65162;SDS011;51751;55.714;37.436;2023-04-08T02:53:38;13.85;;;3.85;;
65162;SDS011;51751;55.714;37.436;2023-04-08T02:56:04;16.38;;;3.67;;
65162;SDS011;51751;55.714;37.436;2023-04-08T02:58:30;12.10;;;3.53;;
65162;SDS011;51751;55.714;37.436;2023-04-08T03:00:56;10.48;;;3.30;;
65162;SDS011;51751;55.714;37.436;2023-04-08T03:03:22;14.38;;;3.90;;
65162;SDS011;51751;55.714;37.436;2023-04-08T03:05:57;11.80;;;4.07;;
65162;SDS011;51751;55.714;37.436;2023-04-08T03:08:23;11.02;;;4.05;;
65162;SDS011;51751;55.714;37.436;2023-04-08T03:10:50;8.40;;;3.35;;
65162;SDS011;51751;55.714;37.436;2023-04-08T03:13:16;10.18;;;3.65;;
65162;SDS011;51751;55.714;37.436;2023-04-08T03:15:42;17.67;;;4.10;;
65162;SDS011;51751;55.714;37.436;2023-04-08T03:18:08;11.02;;;3.63;;
65162;SDS011;51751;55.714;37.436;2023-04-08T03:20:34;11.40;;;3.95;;
65162;SDS011;51751;55.714;37.436;2023-04-08T03:23:00;12.93;;;4.05;;
65162;SDS011;51751;55.714;37.436;2023-04-08T03:25:25;8.05;;;3.70;;
65162;SDS011;51751;55.714;37.436;2023-04-08T03:27:53;9.32;;;3.55;;
65162;SDS011;51751;55.714;37.436;2023-04-08T03:30:20;13.43;;;3.83;;
65162;SDS011;51751;55.714;37.436;2023-04-08T03:32:46;11.02;;;4.03;;
65162;SDS011;51751;55.714;37.436;2023-04-08T03:35:12;17.30;;;4.00;;
65162;SDS011;51751;55.714;37.436;2023-04-08T03:37:38;11.25;;;4.45;;
65162;SDS011;51751;55.714;37.436;2023-04-08T03:40:03;8.73;;;3.50;;
65162;SDS011;51751;55.714;37.436;2023-04-08T03:42:30;20.58;;;3.97;;
65162;SDS011;51751;55.714;37.436;2023-04-08T03:45:14;14.70;;;3.85;;
65162;SDS011;51751;55.714;37.436;2023-04-08T03:47:40;12.32;;;3.83;;
65162;SDS011;51751;55.714;37.436;2023-04-08T03:50:06;11.30;;;4.13;;
65162;SDS011;51751;55.714;37.436;2023-04-08T03:52:32;9.50;;;4.40;;
65162;SDS011;51751;55.714;37.436;2023-04-08T03:54:57;9.77;;;3.80;;
65162;SDS011;51751;55.714;37.436;2023-04-08T03:57:23;11.02;;;4.00;;
65162;SDS011;51751;55.714;37.436;2023-04-08T03:59:49;9.13;;;3.80;;
65162;SDS011;51751;55.714;37.436;2023-04-08T04:02:15;10.10;;;4.68;;
65162;SDS011;51751;55.714;37.436;2023-04-08T04:04:41;7.00;;;3.65;;
65162;SDS011;51751;55.714;37.436;2023-04-08T04:07:06;14.98;;;4.57;;
65162;SDS011;51751;55.714;37.436;2023-04-08T04:09:33;10.20;;;4.50;;
65162;SDS011;51751;55.714;37.436;2023-04-08T04:11:59;15.07;;;4.20;;
65162;SDS011;51751;55.714;37.436;2023-04-08T04:14:25;9.07;;;3.78;;
65162;SDS011;51751;55.714;37.436;2023-04-08T04:16:51;10.32;;;4.00;;
65162;SDS011;51751;55.714;37.436;2023-04-08T04:19:16;18.40;;;4.50;;
65162;SDS011;51751;55.714;37.436;2023-04-08T04:21:43;11.27;;;4.43;;
65162;SDS011;51751;55.714;37.436;2023-04-08T04:24:09;10.13;;;4.20;;
65162;SDS011;51751;55.714;37.436;2023-04-08T04:26:35;10.10;;;4.07;;
65162;SDS011;51751;55.714;37.436;2023-04-08T04:29:00;10.00;;;4.03;;
65162;SDS011;51751;55.714;37.436;2023-04-08T04:31:26;9.25;;;3.65;;
65162;SDS011;51751;55.714;37.436;2023-04-08T04:33:52;14.60;;;4.38;;
65162;SDS011;51751;55.714;37.436;2023-04-08T04:36:18;13.40;;;3.95;;
65162;SDS011;51751;55.714;37.436;2023-04-08T04:38:44;14.75;;;3.78;;
65162;SDS011;51751;55.714;37.436;2023-04-08T04:41:10;11.68;;;4.25;;
65162;SDS011;51751;55.714;37.436;2023-04-08T04:43:36;20.48;;;4.70;;
65162;SDS011;51751;55.714;37.436;2023-04-08T04:46:05;14.07;;;4.68;;
65162;SDS011;51751;55.714;37.436;2023-04-08T04:48:36;21.45;;;4.90;;
65162;SDS011;51751;55.714;37.436;2023-04-08T04:51:02;14.02;;;4.68;;
65162;SDS011;51751;55.714;37.436;2023-04-08T04:53:28;13.90;;;4.07;;
65162;SDS011;51751;55.714;37.436;2023-04-08T04:55:57;9.93;;;3.95;;
65162;SDS011;51751;55.714;37.436;2023-04-08T04:58:25;7.45;;;3.85;;
65162;SDS011;51751;55.714;37.436;2023-04-08T05:01:09;21.10;;;4.13;;
65162;SDS011;51751;55.714;37.436;2023-04-08T05:03:35;14.52;;;4.13;;
65162;SDS011;51751;55.714;37.436;2023-04-08T05:06:01;15.00;;;4.45;;
65162;SDS011;51751;55.714;37.436;2023-04-08T05:08:33;11.98;;;4.40;;
65162;SDS011;51751;55.714;37.436;2023-04-08T05:10:59;8.52;;;4.03;;
65162;SDS011;51751;55.714;37.436;2023-04-08T05:13:27;7.95;;;4.10;;
65162;SDS011;51751;55.714;37.436;2023-04-08T05:15:53;12.65;;;3.97;;
65162;SDS011;51751;55.714;37.436;2023-04-08T05:18:19;10.88;;;3.88;;
65162;SDS011;51751;55.714;37.436;2023-04-08T05:20:45;9.23;;;4.05;;
65162;SDS011;51751;55.714;37.436;2023-04-08T05:23:11;7.65;;;3.88;;
65162;SDS011;51751;55.714;37.436;2023-04-08T05:25:55;13.82;;;4.13;;
65162;SDS011;51751;55.714;37.436;2023-04-08T05:28:21;12.15;;;4.00;;
65162;SDS011;51751;55.714;37.436;2023-04-08T05:30:48;8.77;;;4.00;;
65162;SDS011;51751;55.714;37.436;2023-04-08T05:33:15;11.40;;;3.80;;
65162;SDS011;51751;55.714;37.436;2023-04-08T05:35:41;15.57;;;4.60;;
65162;SDS011;51751;55.714;37.436;2023-04-08T05:38:25;14.75;;;4.65;;
65162;SDS011;51751;55.714;37.436;2023-04-08T05:40:51;9.38;;;3.90;;
65162;SDS011;51751;55.714;37.436;2023-04-08T05:43:17;10.82;;;4.03;;
65162;SDS011;51751;55.714;37.436;2023-04-08T05:45:43;7.60;;;3.80;;
65162;SDS011;51751;55.714;37.436;2023-04-08T05:48:09;9.88;;;3.95;;
65162;SDS011;51751;55.714;37.436;2023-04-08T05:50:34;14.43;;;4.00;;
65162;SDS011;51751;55.714;37.436;2023-04-08T05:53:00;12.43;;;3.95;;
65162;SDS011;51751;55.714;37.436;2023-04-08T05:55:26;13.30;;;4.47;;
65162;SDS011;51751;55.714;37.436;2023-04-08T05:57:52;10.02;;;4.45;;
65162;SDS011;51751;55.714;37.436;2023-04-08T06:00:18;14.25;;;4.05;;
65162;SDS011;51751;55.714;37.436;2023-04-08T06:02:44;7.43;;;3.90;;
65162;SDS011;51751;55.714;37.436;2023-04-08T06:05:10;13.27;;;4.10;;
65162;SDS011;51751;55.714;37.436;2023-04-08T06:07:36;9.00;;;3.85;;
65162;SDS011;51751;55.714;37.436;2023-04-08T06:10:22;13.82;;;4.38;;
65162;SDS011;51751;55.714;37.436;2023-04-08T06:12:48;10.13;;;3.92;;
65162;SDS011;51751;55.714;37.436;2023-04-08T06:15:14;22.50;;;4.47;;
65162;SDS011;51751;55.714;37.436;2023-04-08T06:17:59;14.88;;;4.80;;
65162;SDS011;51751;55.714;37.436;2023-04-08T06:20:25;14.52;;;4.22;;
65162;SDS011;51751;55.714;37.436;2023-04-08T06:22:50;10.30;;;4.22;;
65162;SDS011;51751;55.714;37.436;2023-04-08T06:25:16;13.43;;;3.92;;
65162;SDS011;51751;55.714;37.436;2023-04-08T06:27:42;13.70;;;4.43;;
65162;SDS011;51751;55.714;37.436;2023-04-08T06:30:08;15.15;;;4.35;;
65162;SDS011;51751;55.714;37.436;2023-04-08T06:32:34;12.63;;;4.60;;
65162;SDS011;51751;55.714;37.436;2023-04-08T06:35:20;12.75;;;4.78;;
65162;SDS011;51751;55.714;37.436;2023-04-08T06:37:46;30.63;;;4.80;;
65162;SDS011;51751;55.714;37.436;2023-04-08T06:40:13;16.88;;;4.30;;
65162;SDS011;51751;55.714;37.436;2023-04-08T06:42:38;11.55;;;4.30;;
65162;SDS011;51751;55.714;37.436;2023-04-08T06:45:33;16.38;;;4.53;;
65162;SDS011;51751;55.714;37.436;2023-04-08T06:48:00;15.68;;;5.55;;
65162;SDS011;51751;55.714;37.436;2023-04-08T06:50:25;11.18;;;4.30;;
65162;SDS011;51751;55.714;37.436;2023-04-08T06:52:51;11.68;;;4.68;;
65162;SDS011;51751;55.714;37.436;2023-04-08T06:55:17;10.23;;;4.10;;
65162;SDS011;51751;55.714;37.436;2023-04-08T06:57:43;13.10;;;4.30;;
65162;SDS011;51751;55.714;37.436;2023-04-08T07:00:09;16.35;;;5.28;;
65162;SDS011;51751;55.714;37.436;2023-04-08T07:02:36;16.17;;;4.10;;
65162;SDS011;51751;55.714;37.436;2023-04-08T07:05:01;13.55;;;4.50;;
65162;SDS011;51751;55.714;37.436;2023-04-08T07:07:28;19.48;;;4.07;;
65162;SDS011;51751;55.714;37.436;2023-04-08T07:09:54;14.13;;;5.00;;
65162;SDS011;51751;55.714;37.436;2023-04-08T07:12:20;11.38;;;4.63;;
65162;SDS011;51751;55.714;37.436;2023-04-08T07:14:46;24.48;;;5.43;;
65162;SDS011;51751;55.714;37.436;2023-04-08T07:17:12;20.60;;;4.70;;
65162;SDS011;51751;55.714;37.436;2023-04-08T07:19:38;15.55;;;4.53;;
65162;SDS011;51751;55.714;37.436;2023-04-08T07:22:04;14.23;;;4.13;;
65162;SDS011;51751;55.714;37.436;2023-04-08T07:24:30;16.70;;;4.63;;
65162;SDS011;51751;55.714;37.436;2023-04-08T07:27:15;13.25;;;4.80;;
65162;SDS011;51751;55.714;37.436;2023-04-08T07:29:41;17.38;;;4.85;;
65162;SDS011;51751;55.714;37.436;2023-04-08T07:32:07;17.95;;;5.22;;
65162;SDS011;51751;55.714;37.436;2023-04-08T07:34:34;15.93;;;4.45;;
65162;SDS011;51751;55.714;37.436;2023-04-08T07:37:01;17.55;;;4.90;;
65162;SDS011;51751;55.714;37.436;2023-04-08T07:39:27;14.00;;;4.43;;
65162;SDS011;51751;55.714;37.436;2023-04-08T07:41:53;18.73;;;5.75;;
65162;SDS011;51751;55.714;37.436;2023-04-08T07:44:19;17.80;;;5.00;;
65162;SDS011;51751;55.714;37.436;2023-04-08T07:46:45;17.48;;;4.95;;
65162;SDS011;51751;55.714;37.436;2023-04-08T07:49:13;18.75;;;5.15;;
65162;SDS011;51751;55.714;37.436;2023-04-08T07:51:39;15.43;;;4.72;;
65162;SDS011;51751;55.714;37.436;2023-04-08T07:54:06;21.48;;;4.72;;
65162;SDS011;51751;55.714;37.436;2023-04-08T07:56:32;24.27;;;4.40;;
65162;SDS011;51751;55.714;37.436;2023-04-08T07:58:58;16.15;;;3.80;;
65162;SDS011;51751;55.714;37.436;2023-04-08T08:41:16;14.07;;;3.20;;
65162;SDS011;51751;55.714;37.436;2023-04-08T08:47:38;7.75;;;3.40;;
65162;SDS011;51751;55.714;37.436;2023-04-08T08:50:07;9.95;;;3.00;;
65162;SDS011;51751;55.714;37.436;2023-04-08T08:52:33;13.30;;;3.28;;
65162;SDS011;51751;55.714;37.436;2023-04-08T08:54:59;20.40;;;4.05;;
65162;SDS011;51751;55.714;37.436;2023-04-08T08:57:28;19.13;;;4.03;;
65162;SDS011;51751;55.714;37.436;2023-04-08T08:59:55;20.00;;;5.00;;
65162;SDS011;51751;55.714;37.436;2023-04-08T09:02:23;18.63;;;4.22;;
65162;SDS011;51751;55.714;37.436;2023-04-08T09:04:59;14.80;;;4.65;;
65162;SDS011;51751;55.714;37.436;2023-04-08T09:07:36;11.15;;;4.05;;
65162;SDS011;51751;55.714;37.436;2023-04-08T09:10:05;10.32;;;4.00;;
65162;SDS011;51751;55.714;37.436;2023-04-08T09:19:26;15.73;;;4.65;;
65162;SDS011;51751;55.714;37.436;2023-04-08T09:22:06;11.85;;;4.35;;
65162;SDS011;51751;55.714;37.436;2023-04-08T09:25:23;15.25;;;4.95;;
65162;SDS011;51751;55.714;37.436;2023-04-08T09:28:02;7.35;;;3.30;;
65162;SDS011;51751;55.714;37.436;2023-04-08T09:30:28;15.00;;;3.55;;
65162;SDS011;51751;55.714;37.436;2023-04-08T09:32:56;11.88;;;4.28;;
65162;SDS011;51751;55.714;37.436;2023-04-08T09:35:23;18.75;;;4.05;;
65162;SDS011;51751;55.714;37.436;2023-04-08T09:37:53;12.65;;;3.45;;
65162;SDS011;51751;55.714;37.436;2023-04-08T09:40:19;9.95;;;3.70;;
65162;SDS011;51751;55.714;37.436;2023-04-08T09:42:47;8.73;;;3.25;;
65162;SDS011;51751;55.714;37.436;2023-04-08T09:45:15;16.67;;;4.43;;
65162;SDS011;51751;55.714;37.436;2023-04-08T09:50:31;9.50;;;3.95;;
65162;SDS011;51751;55.714;37.436;2023-04-08T09:53:18;11.93;;;3.30;;
65162;SDS011;51751;55.714;37.436;2023-04-08T09:55:46;21.75;;;3.75;;
65162;SDS011;51751;55.714;37.436;2023-04-08T09:58:18;16.77;;;3.38;;
65162;SDS011;51751;55.714;37.436;2023-04-08T10:00:50;12.18;;;3.75;;
65162;SDS011;51751;55.714;37.436;2023-04-08T10:03:33;13.40;;;3.47;;
65162;SDS011;51751;55.714;37.436;2023-04-08T10:06:01;13.63;;;3.70;;
65162;SDS011;51751;55.714;37.436;2023-04-08T10:08:28;10.95;;;3.72;;
65162;SDS011;51751;55.714;37.436;2023-04-08T10:10:55;5.95;;;3.40;;
65162;SDS011;51751;55.714;37.436;2023-04-08T10:13:22;11.18;;;3.75;;
65162;SDS011;51751;55.714;37.436;2023-04-08T10:15:48;9.38;;;3.60;;
65162;SDS011;51751;55.714;37.436;2023-04-08T10:20:45;14.52;;;3.70;;
65162;SDS011;51751;55.714;37.436;2023-04-08T10:23:12;9.40;;;3.72;;
65162;SDS011;51751;55.714;37.436;2023-04-08T10:25:39;9.13;;;3.83;;
65162;SDS011;51751;55.714;37.436;2023-04-08T10:30:42;15.45;;;4.57;;
65162;SDS011;51751;55.714;37.436;2023-04-08T10:33:16;7.88;;;4.53;;
65162;SDS011;51751;55.714;37.436;2023-04-08T10:38:25;13.93;;;4.50;;
65162;SDS011;51751;55.714;37.436;2023-04-08T10:40:51;13.75;;;4.68;;
65162;SDS011;51751;55.714;37.436;2023-04-08T10:43:18;14.38;;;4.60;;
65162;SDS011;51751;55.714;37.436;2023-04-08T10:45:45;9.48;;;4.60;;
65162;SDS011;51751;55.714;37.436;2023-04-08T10:48:18;9.70;;;4.03;;
65162;SDS011;51751;55.714;37.436;2023-04-08T10:51:20;11.27;;;4.72;;
65162;SDS011;51751;55.714;37.436;2023-04-08T10:53:39;11.05;;;4.43;;
65162;SDS011;51751;55.714;37.436;2023-04-08T10:58:54;11.32;;;4.30;;
65162;SDS011;51751;55.714;37.436;2023-04-08T11:01:21;12.98;;;4.88;;
65162;SDS011;51751;55.714;37.436;2023-04-08T11:03:47;9.48;;;4.20;;
65162;SDS011;51751;55.714;37.436;2023-04-08T11:06:14;13.18;;;4.65;;
65162;SDS011;51751;55.714;37.436;2023-04-08T11:08:40;9.43;;;4.57;;
65162;SDS011;51751;55.714;37.436;2023-04-08T11:11:06;9.18;;;4.10;;
65162;SDS011;51751;55.714;37.436;2023-04-08T11:13:36;7.03;;;4.65;;
65162;SDS011;51751;55.714;37.436;2023-04-08T11:16:07;6.50;;;4.68;;
65162;SDS011;51751;55.714;37.436;2023-04-08T11:18:38;10.05;;;4.70;;
65162;SDS011;51751;55.714;37.436;2023-04-08T11:21:08;8.25;;;4.60;;
65162;SDS011;51751;55.714;37.436;2023-04-08T11:23:35;11.60;;;4.75;;
65162;SDS011;51751;55.714;37.436;2023-04-08T11:26:04;8.77;;;4.32;;
65162;SDS011;51751;55.714;37.436;2023-04-08T11:28:31;8.63;;;4.20;;
65162;SDS011;51751;55.714;37.436;2023-04-08T11:30:57;6.38;;;4.22;;
65162;SDS011;51751;55.714;37.436;2023-04-08T11:33:26;11.57;;;4.22;;
65162;SDS011;51751;55.714;37.436;2023-04-08T11:35:55;21.73;;;4.57;;
65162;SDS011;51751;55.714;37.436;2023-04-08T11:38:24;13.20;;;4.50;;
65162;SDS011;51751;55.714;37.436;2023-04-08T11:40:53;8.73;;;4.20;;
65162;SDS011;51751;55.714;37.436;2023-04-08T11:43:24;5.45;;;4.00;;
65162;SDS011;51751;55.714;37.436;2023-04-08T11:45:51;9.05;;;3.95;;
65162;SDS011;51751;55.714;37.436;2023-04-08T11:48:23;10.40;;;3.88;;
65162;SDS011;51751;55.714;37.436;2023-04-08T11:51:01;9.93;;;4.30;;
65162;SDS011;51751;55.714;37.436;2023-04-08T11:53:30;6.95;;;3.75;;
65162;SDS011;51751;55.714;37.436;2023-04-08T11:55:57;10.43;;;4.18;;
65162;SDS011;51751;55.714;37.436;2023-04-08T11:58:23;8.82;;;3.95;;
65162;SDS011;51751;55.714;37.436;2023-04-08T12:00:49;9.63;;;4.18;;
65162;SDS011;51751;55.714;37.436;2023-04-08T12:03:15;9.63;;;4.38;;
65162;SDS011;51751;55.714;37.436;2023-04-08T12:05:41;16.65;;;4.30;;
65162;SDS011;51751;55.714;37.436;2023-04-08T12:08:26;9.00;;;4.47;;
65162;SDS011;51751;55.714;37.436;2023-04-08T12:10:52;11.60;;;4.70;;
65162;SDS011;51751;55.714;37.436;2023-04-08T12:13:21;15.02;;;4.70;;
65162;SDS011;51751;55.714;37.436;2023-04-08T12:15:47;6.80;;;4.93;;
65162;SDS011;51751;55.714;37.436;2023-04-08T12:18:16;8.82;;;4.60;;
65162;SDS011;51751;55.714;37.436;2023-04-08T12:20:42;16.67;;;5.05;;
65162;SDS011;51751;55.714;37.436;2023-04-08T12:23:08;8.55;;;4.60;;
65162;SDS011;51751;55.714;37.436;2023-04-08T12:25:33;11.60;;;5.00;;
65162;SDS011;51751;55.714;37.436;2023-04-08T12:27:59;7.00;;;4.82;;
65162;SDS011;51751;55.714;37.436;2023-04-08T12:30:25;10.63;;;4.75;;
65162;SDS011;51751;55.714;37.436;2023-04-08T12:32:51;11.05;;;4.32;;
65162;SDS011;51751;55.714;37.436;2023-04-08T12:35:19;9.60;;;4.93;;
65162;SDS011;51751;55.714;37.436;2023-04-08T12:37:45;11.60;;;4.57;;
65162;SDS011;51751;55.714;37.436;2023-04-08T12:40:11;9.02;;;4.10;;
65162;SDS011;51751;55.714;37.436;2023-04-08T12:42:37;7.60;;;4.50;;
65162;SDS011;51751;55.714;37.436;2023-04-08T12:45:04;13.02;;;4.47;;
65162;SDS011;51751;55.714;37.436;2023-04-08T12:47:32;15.35;;;4.30;;
65162;SDS011;51751;55.714;37.436;2023-04-08T12:49:57;9.55;;;4.95;;
65162;SDS011;51751;55.714;37.436;2023-04-08T12:52:23;12.38;;;4.50;;
65162;SDS011;51751;55.714;37.436;2023-04-08T12:54:50;7.90;;;4.32;;
65162;SDS011;51751;55.714;37.436;2023-04-08T12:57:16;10.32;;;5.70;;
65162;SDS011;51751;55.714;37.436;2023-04-08T12:59:42;12.10;;;6.15;;
65162;SDS011;51751;55.714;37.436;2023-04-08T13:02:07;11.25;;;5.35;;
65162;SDS011;51751;55.714;37.436;2023-04-08T13:04:33;13.27;;;5.20;;
65162;SDS011;51751;55.714;37.436;2023-04-08T13:07:00;17.90;;;5.40;;
65162;SDS011;51751;55.714;37.436;2023-04-08T13:09:29;13.75;;;5.65;;
65162;SDS011;51751;55.714;37.436;2023-04-08T13:11:55;7.97;;;4.50;;
65162;SDS011;51751;55.714;37.436;2023-04-08T13:14:20;10.52;;;4.85;;
65162;SDS011;51751;55.714;37.436;2023-04-08T13:16:46;13.07;;;5.68;;
65162;SDS011;51751;55.714;37.436;2023-04-08T13:19:13;16.40;;;4.68;;
65162;SDS011;51751;55.714;37.436;2023-04-08T13:21:39;11.05;;;4.70;;
65162;SDS011;51751;55.714;37.436;2023-04-08T13:24:05;11.23;;;4.90;;
65162;SDS011;51751;55.714;37.436;2023-04-08T13:26:31;14.27;;;4.75;;
65162;SDS011;51751;55.714;37.436;2023-04-08T13:28:57;8.93;;;4.20;;
65162;SDS011;51751;55.714;37.436;2023-04-08T13:31:23;13.80;;;4.70;;
65162;SDS011;51751;55.714;37.436;2023-04-08T13:33:49;9.77;;;5.13;;
65162;SDS011;51751;55.714;37.436;2023-04-08T13:36:15;13.48;;;4.65;;
65162;SDS011;51751;55.714;37.436;2023-04-08T13:38:41;8.77;;;4.38;;
65162;SDS011;51751;55.714;37.436;2023-04-08T13:41:07;9.70;;;4.60;;
65162;SDS011;51751;55.714;37.436;2023-04-08T13:43:33;13.27;;;4.60;;
65162;SDS011;51751;55.714;37.436;2023-04-08T13:46:00;15.48;;;4.15;;
65162;SDS011;51751;55.714;37.436;2023-04-08T13:48:26;11.05;;;3.92;;
65162;SDS011;51751;55.714;37.436;2023-04-08T13:50:52;7.95;;;3.80;;
65162;SDS011;51751;55.714;37.436;2023-04-08T13:53:17;5.60;;;3.13;;
65162;SDS011;51751;55.714;37.436;2023-04-08T13:55:43;13.00;;;3.40;;
65162;SDS011;51751;55.714;37.436;2023-04-08T13:58:09;9.27;;;3.15;;
65162;SDS011;51751;55.714;37.436;2023-04-08T14:00:35;6.85;;;3.38;;
65162;SDS011;51751;55.714;37.436;2023-04-08T14:03:01;8.00;;;3.20;;
65162;SDS011;51751;55.714;37.436;2023-04-08T14:05:27;11.07;;;2.92;;
65162;SDS011;51751;55.714;37.436;2023-04-08T14:07:53;15.27;;;3.30;;
65162;SDS011;51751;55.714;37.436;2023-04-08T14:10:19;6.38;;;3.20;;
65162;SDS011;51751;55.714;37.436;2023-04-08T14:13:03;10.05;;;3.65;;
65162;SDS011;51751;55.714;37.436;2023-04-08T14:15:29;7.78;;;3.50;;
65162;SDS011;51751;55.714;37.436;2023-04-08T14:17:55;13.77;;;3.88;;
65162;SDS011;51751;55.714;37.436;2023-04-08T14:20:21;10.63;;;3.33;;
65162;SDS011;51751;55.714;37.436;2023-04-08T14:22:47;12.75;;;4.00;;
65162;SDS011;51751;55.714;37.436;2023-04-08T14:25:13;7.53;;;3.20;;
65162;SDS011;51751;55.714;37.436;2023-04-08T14:27:39;9.57;;;3.50;;
65162;SDS011;51751;55.714;37.436;2023-04-08T14:30:05;6.05;;;3.28;;
65162;SDS011;51751;55.714;37.436;2023-04-08T14:32:31;10.70;;;3.70;;
65162;SDS011;51751;55.714;37.436;2023-04-08T14:35:16;6.57;;;3.40;;
65162;SDS011;51751;55.714;37.436;2023-04-08T14:37:42;9.68;;;3.50;;
65162;SDS011;51751;55.714;37.436;2023-04-08T14:40:08;12.75;;;3.30;;
65162;SDS011;51751;55.714;37.436;2023-04-08T14:42:35;7.13;;;3.10;;
65162;SDS011;51751;55.714;37.436;2023-04-08T14:45:01;6.70;;;3.10;;
65162;SDS011;51751;55.714;37.436;2023-04-08T14:47:28;8.00;;;3.10;;
65162;SDS011;51751;55.714;37.436;2023-04-08T14:49:54;8.55;;;3.22;;
65162;SDS011;51751;55.714;37.436;2023-04-08T14:52:39;11.98;;;3.00;;
65162;SDS011;51751;55.714;37.436;2023-04-08T14:55:05;6.03;;;2.90;;
65162;SDS011;51751;55.714;37.436;2023-04-08T14:57:31;10.90;;;3.45;;
65162;SDS011;51751;55.714;37.436;2023-04-08T14:59:57;9.63;;;3.03;;
65162;SDS011;51751;55.714;37.436;2023-04-08T15:02:24;9.50;;;3.20;;
65162;SDS011;51751;55.714;37.436;2023-04-08T15:04:50;7.15;;;2.92;;
65162;SDS011;51751;55.714;37.436;2023-04-08T15:07:16;7.38;;;3.80;;
65162;SDS011;51751;55.714;37.436;2023-04-08T15:09:42;7.82;;;3.38;;
65162;SDS011;51751;55.714;37.436;2023-04-08T15:12:08;7.78;;;3.92;;
65162;SDS011;51751;55.714;37.436;2023-04-08T15:14:34;6.57;;;3.38;;
65162;SDS011;51751;55.714;37.436;2023-04-08T15:17:00;7.45;;;3.58;;
65162;SDS011;51751;55.714;37.436;2023-04-08T15:19:26;6.05;;;3.20;;
65162;SDS011;51751;55.714;37.436;2023-04-08T15:21:52;6.53;;;3.20;;
65162;SDS011;51751;55.714;37.436;2023-04-08T15:24:18;8.30;;;4.22;;
65162;SDS011;51751;55.714;37.436;2023-04-08T15:26:44;9.98;;;3.75;;
65162;SDS011;51751;55.714;37.436;2023-04-08T15:29:10;13.25;;;3.47;;
65162;SDS011;51751;55.714;37.436;2023-04-08T15:31:36;11.43;;;3.90;;
65162;SDS011;51751;55.714;37.436;2023-04-08T15:34:02;17.42;;;3.80;;
65162;SDS011;51751;55.714;37.436;2023-04-08T15:36:31;7.47;;;3.47;;
65162;SDS011;51751;55.714;37.436;2023-04-08T15:38:57;16.10;;;4.13;;
65162;SDS011;51751;55.714;37.436;2023-04-08T15:41:24;8.82;;;3.65;;
65162;SDS011;51751;55.714;37.436;2023-04-08T15:43:51;16.05;;;4.03;;